createdAt,value
2022-08-10T00:01:51.264Z,68.20
2022-08-10T00:04:23.936Z,68.30
2022-08-10T00:06:55.486Z,68.50
2022-08-10T00:09:23.726Z,68.60
2022-08-10T00:11:51.310Z,68.60
2022-08-10T00:14:19.151Z,68.60
2022-08-10T00:16:47.278Z,68.60
2022-08-10T00:19:17.281Z,68.70
2022-08-10T00:21:45.519Z,68.80
2022-08-10T00:24:13.744Z,68.80
2022-08-10T00:27:52.633Z,68.90
2022-08-10T00:29:29.513Z,69.00
2022-08-10T00:31:59.093Z,69.10
2022-08-10T00:34:27.755Z,69.20
2022-08-10T00:36:56.221Z,69.20
2022-08-10T00:39:24.019Z,69.20
2022-08-10T00:42:07.057Z,69.20
2022-08-10T00:44:39.714Z,69.10
2022-08-10T00:47:15.372Z,69.00
2022-08-10T00:49:55.862Z,68.90
2022-08-10T00:52:24.855Z,68.90
2022-08-10T00:54:52.852Z,68.90
2022-08-10T00:57:21.362Z,68.90
2022-08-10T00:59:57.917Z,68.70
2022-08-10T01:02:32.865Z,68.60
2022-08-10T01:05:03.089Z,68.60
2022-08-10T01:07:49.757Z,68.50
2022-08-10T01:10:20.451Z,68.50
2022-08-10T01:13:08.765Z,68.40
2022-08-10T01:15:36.451Z,68.40
2022-08-10T01:18:23.515Z,68.40
2022-08-10T01:21:13.092Z,68.40
2022-08-10T01:23:51.692Z,68.60
2022-08-10T01:26:40.764Z,68.70
2022-08-10T01:29:27.791Z,68.70
2022-08-10T01:31:57.863Z,68.60
2022-08-10T01:34:28.161Z,68.40
2022-08-10T01:37:07.480Z,68.50
2022-08-10T01:39:42.610Z,68.40
2022-08-10T01:42:12.607Z,68.60
2022-08-10T01:44:43.786Z,68.70
2022-08-10T01:47:38.342Z,68.80
2022-08-10T01:50:18.465Z,68.90
2022-08-10T01:52:47.353Z,69.00
2022-08-10T01:55:15.593Z,69.20
2022-08-10T01:57:44.657Z,69.30
2022-08-10T02:00:13.742Z,69.30
2022-08-10T02:02:42.695Z,69.30
2022-08-10T02:05:12.019Z,69.20
2022-08-10T02:07:42.221Z,69.00
2022-08-10T02:10:11.859Z,69.00
2022-08-10T02:12:40.135Z,69.00
2022-08-10T02:15:10.861Z,68.80
2022-08-10T02:17:59.678Z,68.70
2022-08-10T02:20:32.396Z,68.70
2022-08-10T02:23:01.813Z,68.70
2022-08-10T02:25:41.226Z,68.80
2022-08-10T02:28:27.138Z,68.80
2022-08-10T02:30:58.374Z,68.90
2022-08-10T02:33:28.031Z,68.90
2022-08-10T02:35:58.541Z,69.10
2022-08-10T02:38:58.208Z,69.10
2022-08-10T02:42:18.932Z,69.00
2022-08-10T02:45:20.718Z,69.10
2022-08-10T02:47:52.760Z,68.80
2022-08-10T02:50:31.547Z,68.80
2022-08-10T02:53:04.982Z,68.80
2022-08-10T02:55:36.184Z,68.90
2022-08-10T02:58:12.730Z,69.00
2022-08-10T03:00:51.788Z,69.00
2022-08-10T03:03:21.574Z,68.90
2022-08-10T03:05:51.284Z,69.00
2022-08-10T03:08:21.570Z,68.90
2022-08-10T03:10:50.717Z,68.90
2022-08-10T03:13:19.011Z,68.80
2022-08-10T03:15:47.633Z,68.90
2022-08-10T03:18:16.835Z,68.90
2022-08-10T03:20:45.112Z,69.00
2022-08-10T03:23:17.863Z,69.10
2022-08-10T03:25:54.403Z,69.10
2022-08-10T03:28:32.717Z,69.10
2022-08-10T03:31:01.672Z,69.10
2022-08-10T03:33:31.330Z,69.10
2022-08-10T03:36:41.370Z,69.10
2022-08-10T03:38:51.940Z,69.00
2022-08-10T03:41:22.362Z,69.00
2022-08-10T03:43:51.681Z,69.10
2022-08-10T03:46:21.599Z,69.80
2022-08-10T03:48:51.683Z,69.20
2022-08-10T03:51:20.260Z,69.20
2022-08-10T03:54:04.689Z,69.10
2022-08-10T03:56:36.406Z,69.00
2022-08-10T03:59:04.914Z,69.00
2022-08-10T04:02:45.592Z,69.10
2022-08-10T04:04:24.584Z,69.20
2022-08-10T04:06:56.681Z,69.30
2022-08-10T04:09:43.458Z,69.20
2022-08-10T04:12:16.657Z,69.30
2022-08-10T04:14:51.198Z,69.30
2022-08-10T04:17:57.478Z,69.30
2022-08-10T04:20:12.407Z,69.30
2022-08-10T04:22:40.306Z,69.20
2022-08-10T04:25:08.484Z,69.40
2022-08-10T04:27:36.607Z,69.30
2022-08-10T04:30:04.709Z,69.40
2022-08-10T04:32:32.529Z,69.40
2022-08-10T04:35:03.302Z,69.50
2022-08-10T04:37:31.604Z,69.50
2022-08-10T04:39:59.376Z,69.60
2022-08-10T04:42:27.726Z,69.90
2022-08-10T04:44:55.490Z,70.10
2022-08-10T04:48:00.335Z,70.10
2022-08-10T04:50:11.375Z,70.40
2022-08-10T04:52:40.038Z,70.70
2022-08-10T04:55:07.909Z,70.60
2022-08-10T04:57:35.975Z,70.50
2022-08-10T05:00:18.032Z,70.20
2022-08-10T05:02:47.107Z,70.20
2022-08-10T05:05:14.666Z,70.10
2022-08-10T05:07:53.849Z,70.10
2022-08-10T05:10:25.218Z,70.10
2022-08-10T05:12:52.873Z,70.10
2022-08-10T05:15:22.894Z,70.30
2022-08-10T05:18:08.521Z,70.40
2022-08-10T05:20:39.111Z,70.50
2022-08-10T05:23:07.780Z,70.70
2022-08-10T05:25:38.027Z,70.70
2022-08-10T05:28:06.957Z,70.90
2022-08-10T05:30:35.222Z,70.90
2022-08-10T05:33:08.047Z,71.00
2022-08-10T05:35:56.372Z,71.00
2022-08-10T05:38:26.162Z,70.90
2022-08-10T05:40:54.309Z,70.70
2022-08-10T05:43:22.393Z,70.60
2022-08-10T05:46:19.451Z,70.60
2022-08-10T05:48:56.893Z,70.70
2022-08-10T05:51:26.354Z,70.60
2022-08-10T05:54:02.805Z,70.60
2022-08-10T05:56:56.138Z,70.60
2022-08-10T06:00:34.603Z,70.70
2022-08-10T06:02:32.806Z,71.40
2022-08-10T06:05:23.697Z,70.90
2022-08-10T06:08:06.774Z,70.80
2022-08-10T06:10:36.035Z,70.80
2022-08-10T06:13:59.833Z,70.80
2022-08-10T06:16:33.341Z,70.80
2022-08-10T06:19:02.630Z,70.90
2022-08-10T06:21:30.420Z,71.10
2022-08-10T06:23:59.555Z,71.30
2022-08-10T06:26:27.303Z,71.30
2022-08-10T06:29:03.652Z,71.20
2022-08-10T06:31:47.878Z,71.10
2022-08-10T06:34:19.899Z,71.20
2022-08-10T06:36:48.360Z,71.30
2022-08-10T06:39:33.042Z,71.20
2022-08-10T06:42:16.051Z,71.40
2022-08-10T06:44:57.118Z,71.40
2022-08-10T06:47:45.411Z,71.50
2022-08-10T06:50:34.371Z,72.10
2022-08-10T06:53:06.646Z,71.40
2022-08-10T06:55:49.789Z,71.40
2022-08-10T06:58:26.969Z,71.50
2022-08-10T07:00:55.865Z,71.60
2022-08-10T07:03:26.868Z,71.70
2022-08-10T07:05:55.141Z,71.80
2022-08-10T07:08:23.790Z,71.90
2022-08-10T07:10:52.110Z,72.00
2022-08-10T07:14:16.287Z,71.80
2022-08-10T07:16:10.146Z,71.70
2022-08-10T07:18:39.047Z,71.70
2022-08-10T07:21:07.950Z,71.60
2022-08-10T07:23:57.526Z,71.40
2022-08-10T07:26:25.694Z,71.30
2022-08-10T07:28:54.052Z,71.30
2022-08-10T07:31:54.462Z,71.20
2022-08-10T07:34:11.787Z,71.20
2022-08-10T07:36:40.504Z,71.30
2022-08-10T07:39:09.239Z,71.30
2022-08-10T07:41:40.297Z,71.10
2022-08-10T07:44:09.075Z,71.10
2022-08-10T07:46:38.673Z,71.00
2022-08-10T07:49:16.797Z,70.90
2022-08-10T07:51:55.050Z,71.00
2022-08-10T07:54:27.232Z,71.10
2022-08-10T07:56:59.959Z,71.10
2022-08-10T07:59:38.271Z,71.10
2022-08-10T08:02:07.834Z,71.10
2022-08-10T08:04:36.939Z,71.10
2022-08-10T08:07:04.922Z,71.20
2022-08-10T08:09:33.807Z,71.20
2022-08-10T08:12:02.329Z,71.20
2022-08-10T08:14:30.396Z,71.20
2022-08-10T08:16:59.054Z,71.20
2022-08-10T08:19:37.813Z,71.20
2022-08-10T08:24:08.802Z,71.20
2022-08-10T08:25:01.802Z,71.30
2022-08-10T08:27:32.745Z,71.30
2022-08-10T08:30:00.555Z,71.20
2022-08-10T08:32:30.543Z,71.30
2022-08-10T08:35:00.118Z,71.30
2022-08-10T08:38:33.504Z,71.30
2022-08-10T08:40:19.637Z,71.20
2022-08-10T08:43:06.726Z,71.20
2022-08-10T08:45:37.454Z,71.20
2022-08-10T08:48:37.659Z,71.00
2022-08-10T08:52:06.984Z,70.90
2022-08-10T08:54:34.330Z,70.70
2022-08-10T08:57:02.090Z,70.50
2022-08-10T08:59:48.578Z,70.50
2022-08-10T09:02:25.147Z,70.60
2022-08-10T09:04:59.521Z,70.60
2022-08-10T09:08:01.228Z,70.40
2022-08-10T09:10:35.439Z,70.10
2022-08-10T09:13:27.309Z,70.00
2022-08-10T09:16:00.805Z,69.80
2022-08-10T09:18:34.824Z,69.60
2022-08-10T09:21:11.852Z,70.20
2022-08-10T09:24:01.643Z,69.50
2022-08-10T09:26:39.011Z,69.40
2022-08-10T09:29:12.328Z,69.40
2022-08-10T09:32:55.992Z,69.40
2022-08-10T09:36:24.247Z,69.50
2022-08-10T09:38:02.504Z,69.60
2022-08-10T09:40:59.597Z,70.10
2022-08-10T09:43:56.080Z,69.40
2022-08-10T09:46:27.752Z,69.50
2022-08-10T09:49:08.224Z,69.40
2022-08-10T09:51:52.586Z,69.30
2022-08-10T09:54:36.051Z,69.40
2022-08-10T09:57:41.268Z,69.30
2022-08-10T10:00:01.433Z,69.30
2022-08-10T10:02:39.420Z,69.20
2022-08-10T10:05:10.764Z,69.20
2022-08-10T10:07:40.130Z,69.20
2022-08-10T10:10:17.194Z,69.30
2022-08-10T10:12:52.655Z,69.20
2022-08-10T10:15:39.377Z,69.30
2022-08-10T10:18:19.485Z,69.30
2022-08-10T10:21:09.247Z,69.20
2022-08-10T10:23:39.939Z,69.30
2022-08-10T10:26:22.824Z,69.30
2022-08-10T10:31:41.742Z,69.20
2022-08-10T10:34:09.618Z,69.20
2022-08-10T10:36:39.537Z,68.90
2022-08-10T10:39:08.094Z,69.00
2022-08-10T10:41:57.441Z,69.00
2022-08-10T10:44:47.416Z,68.90
2022-08-10T10:47:20.982Z,69.20
2022-08-10T10:50:02.124Z,69.00
2022-08-10T10:52:42.305Z,68.90
2022-08-10T10:55:13.570Z,69.10
2022-08-10T10:57:59.515Z,68.80
2022-08-10T11:00:55.035Z,68.70
2022-08-10T11:03:39.424Z,68.40
2022-08-10T11:06:17.182Z,68.20
2022-08-10T11:08:51.339Z,68.10
2022-08-10T11:12:00.430Z,68.00
2022-08-10T11:14:25.579Z,68.10
2022-08-10T11:17:11.527Z,68.30
2022-08-10T11:20:00.388Z,68.20
2022-08-10T11:22:46.605Z,68.30
2022-08-10T11:25:23.581Z,68.50
2022-08-10T11:28:09.947Z,68.80
2022-08-10T11:30:45.139Z,69.10
2022-08-10T11:33:13.109Z,69.80
2022-08-10T11:35:43.750Z,69.40
2022-08-10T11:38:42.735Z,69.60
2022-08-10T11:42:10.292Z,69.50
2022-08-10T11:44:36.867Z,69.60
2022-08-10T11:47:13.875Z,69.70
2022-08-10T11:49:47.530Z,69.60
2022-08-10T11:52:15.434Z,69.60
2022-08-10T11:54:54.503Z,69.60
2022-08-10T11:57:53.185Z,69.30
2022-08-10T12:00:17.818Z,69.10
2022-08-10T12:02:53.391Z,69.00
2022-08-10T12:05:21.567Z,68.90
2022-08-10T12:10:07.643Z,69.40
2022-08-10T12:10:42.978Z,68.70
2022-08-10T12:13:26.237Z,68.40
2022-08-10T12:16:05.483Z,68.30
2022-08-10T12:18:46.386Z,68.10
2022-08-10T12:21:26.687Z,67.80
2022-08-10T12:24:03.043Z,67.60
2022-08-10T12:26:44.638Z,67.40
2022-08-10T12:29:15.673Z,67.10
2022-08-10T12:32:02.174Z,67.10
2022-08-10T12:34:50.152Z,66.90
2022-08-10T12:37:24.559Z,66.70
2022-08-10T12:43:02.580Z,66.50
2022-08-10T12:46:09.945Z,66.40
2022-08-10T12:48:56.701Z,66.40
2022-08-10T12:51:29.189Z,66.40
2022-08-10T12:54:09.442Z,66.40
2022-08-10T12:56:40.084Z,66.40
2022-08-10T12:59:10.209Z,66.20
2022-08-10T13:02:06.591Z,66.10
2022-08-10T13:04:33.881Z,66.10
2022-08-10T13:07:03.284Z,66.10
2022-08-10T13:09:31.756Z,66.20
2022-08-10T13:12:38.824Z,66.20
2022-08-10T13:14:58.559Z,66.20
2022-08-10T13:17:38.599Z,66.30
2022-08-10T13:20:31.361Z,66.50
2022-08-10T13:23:00.336Z,66.60
2022-08-10T13:25:39.294Z,66.90
2022-08-10T13:28:37.050Z,66.90
2022-08-10T13:30:57.731Z,67.00
2022-08-10T13:34:40.044Z,66.90
2022-08-10T13:36:16.491Z,66.80
2022-08-10T13:38:45.990Z,66.80
2022-08-10T13:41:13.645Z,66.60
2022-08-10T13:43:51.834Z,66.60
2022-08-10T13:46:22.951Z,66.40
2022-08-10T13:48:55.671Z,66.10
2022-08-10T13:51:54.551Z,66.10
2022-08-10T13:54:17.373Z,66.10
2022-08-10T13:56:47.460Z,65.70
2022-08-10T13:59:16.300Z,65.70
2022-08-10T14:01:51.689Z,65.60
2022-08-10T14:04:20.451Z,65.40
2022-08-10T14:06:56.152Z,65.60
2022-08-10T14:09:26.056Z,65.40
2022-08-10T14:11:54.401Z,65.50
2022-08-10T14:14:22.699Z,65.50
2022-08-10T14:16:51.687Z,65.60
2022-08-10T14:19:21.392Z,65.60
2022-08-10T14:21:50.416Z,65.40
2022-08-10T14:24:30.857Z,65.30
2022-08-10T14:27:09.008Z,65.30
2022-08-10T14:29:44.184Z,65.20
2022-08-10T14:32:13.416Z,65.20
2022-08-10T14:36:14.673Z,65.20
2022-08-10T14:37:38.590Z,65.20
2022-08-10T14:40:17.291Z,65.30
2022-08-10T14:42:50.664Z,65.40
2022-08-10T14:45:26.759Z,65.50
2022-08-10T14:48:00.917Z,65.40
2022-08-10T14:50:31.679Z,65.30
2022-08-10T14:53:10.319Z,65.30
2022-08-10T14:55:57.592Z,65.30
2022-08-10T14:58:35.892Z,65.30
2022-08-10T15:01:07.200Z,65.30
2022-08-10T15:03:58.537Z,65.30
2022-08-10T15:06:31.038Z,65.20
2022-08-10T15:09:04.340Z,65.30
2022-08-10T15:12:13.009Z,65.20
2022-08-10T15:14:41.286Z,65.30
2022-08-10T15:17:13.649Z,65.40
2022-08-10T15:20:03.365Z,65.40
2022-08-10T15:22:50.333Z,65.50
2022-08-10T15:25:25.561Z,65.60
2022-08-10T15:28:06.415Z,65.60
2022-08-10T15:30:43.151Z,65.70
2022-08-10T15:33:59.479Z,65.70
2022-08-10T15:37:02.067Z,65.70
2022-08-10T15:40:20.460Z,65.40
2022-08-10T15:42:24.656Z,65.40
2022-08-10T15:44:54.246Z,65.30
2022-08-10T15:47:21.837Z,65.20
2022-08-10T15:49:53.813Z,65.20
2022-08-10T15:53:01.696Z,65.20
2022-08-10T15:55:42.725Z,65.00
2022-08-10T15:58:19.526Z,65.10
2022-08-10T16:00:59.492Z,65.00
2022-08-10T16:03:30.476Z,65.00
2022-08-10T16:06:01.463Z,64.90
2022-08-10T16:08:57.205Z,64.80
2022-08-10T16:11:42.694Z,64.80
2022-08-10T16:14:13.701Z,64.70
2022-08-10T16:16:44.218Z,64.60
2022-08-10T16:19:24.093Z,64.70
2022-08-10T16:22:34.450Z,64.80
2022-08-10T16:25:01.743Z,64.70
2022-08-10T16:27:30.765Z,64.70
2022-08-10T16:30:00.798Z,64.80
2022-08-10T16:32:30.181Z,64.70
2022-08-10T16:34:58.451Z,64.70
2022-08-10T16:37:57.656Z,64.80
2022-08-10T16:40:24.302Z,64.70
2022-08-10T16:42:52.582Z,64.70
2022-08-10T16:45:43.647Z,64.60
2022-08-10T16:48:13.897Z,64.60
2022-08-10T16:50:50.133Z,64.70
2022-08-10T16:53:20.085Z,64.60
2022-08-10T16:55:50.843Z,64.60
2022-08-10T16:58:21.751Z,64.50
2022-08-10T17:00:50.446Z,64.50
2022-08-10T17:04:04.894Z,64.50
2022-08-10T17:06:13.782Z,64.50
2022-08-10T17:08:48.676Z,64.60
2022-08-10T17:11:17.846Z,64.80
2022-08-10T17:13:45.859Z,64.70
2022-08-10T17:16:14.666Z,64.60
2022-08-10T17:18:45.130Z,64.40
2022-08-10T17:21:18.392Z,64.60
2022-08-10T17:23:48.554Z,64.40
2022-08-10T17:26:17.787Z,64.40
2022-08-10T17:28:54.535Z,64.30
2022-08-10T17:31:53.671Z,64.50
2022-08-10T17:34:18.529Z,62.10
2022-08-10T17:36:49.854Z,60.10
2022-08-10T17:39:21.304Z,58.20
2022-08-10T17:41:52.241Z,57.00
2022-08-10T17:44:20.735Z,56.00
2022-08-10T17:46:49.523Z,55.20
2022-08-10T17:49:18.275Z,54.70
2022-08-10T17:51:53.809Z,54.30
2022-08-10T17:54:27.112Z,53.80
2022-08-10T17:56:59.893Z,53.10
2022-08-10T17:59:29.105Z,53.40
2022-08-10T18:02:01.984Z,53.20
2022-08-10T18:04:41.433Z,53.00
2022-08-10T18:07:10.920Z,52.70
2022-08-10T18:09:50.030Z,52.70
2022-08-10T18:12:32.717Z,52.80
2022-08-10T18:15:08.429Z,52.60
2022-08-10T18:17:41.158Z,52.40
2022-08-10T18:20:09.863Z,52.30
2022-08-10T18:22:43.184Z,52.60
2022-08-10T18:25:17.011Z,52.80
2022-08-10T18:28:00.213Z,52.50
2022-08-10T18:30:36.249Z,53.10
2022-08-10T18:33:04.978Z,54.30
2022-08-10T18:35:34.275Z,55.20
2022-08-10T18:38:03.562Z,55.80
2022-08-10T18:40:36.535Z,56.30
2022-08-10T18:44:07.216Z,56.60
2022-08-10T18:45:57.324Z,56.70
2022-08-10T18:48:32.808Z,57.20
2022-08-10T18:51:05.646Z,57.40
2022-08-10T18:53:53.761Z,59.40
2022-08-10T18:56:21.429Z,60.00
2022-08-10T18:59:07.108Z,61.00
2022-08-10T19:01:34.954Z,62.00
2022-08-10T19:04:15.255Z,62.40
2022-08-10T19:06:52.322Z,63.10
2022-08-10T19:09:46.109Z,63.20
2022-08-10T19:12:30.302Z,63.70
2022-08-10T19:15:15.013Z,63.90
2022-08-10T19:18:03.541Z,64.10
2022-08-10T19:20:40.915Z,64.30
2022-08-10T19:23:15.489Z,64.40
2022-08-10T19:26:42.216Z,64.60
2022-08-10T19:28:41.715Z,64.70
2022-08-10T19:31:44.098Z,64.80
2022-08-10T19:34:31.126Z,64.90
2022-08-10T19:37:17.731Z,64.90
2022-08-10T19:40:04.983Z,65.00
2022-08-10T19:42:40.069Z,65.20
2022-08-10T19:45:55.877Z,65.30
2022-08-10T19:48:15.714Z,65.40
2022-08-10T19:51:19.095Z,65.70
2022-08-10T19:54:05.535Z,65.90
2022-08-10T19:56:46.162Z,65.90
2022-08-10T19:59:14.195Z,66.00
2022-08-10T20:01:55.444Z,66.20
2022-08-10T20:04:36.570Z,66.20
2022-08-10T20:07:23.605Z,66.40
2022-08-10T20:10:24.438Z,66.50
2022-08-10T20:13:10.637Z,66.40
2022-08-10T20:15:56.135Z,66.20
2022-08-10T20:18:27.115Z,66.30
2022-08-10T20:21:12.550Z,66.50
2022-08-10T20:23:55.863Z,66.30
2022-08-10T20:26:29.627Z,66.30
2022-08-10T20:29:06.328Z,66.20
2022-08-10T20:31:39.409Z,66.20
2022-08-10T20:34:15.781Z,66.20
2022-08-10T20:36:49.879Z,66.30
2022-08-10T20:39:20.013Z,66.60
2022-08-10T20:41:58.268Z,66.70
2022-08-10T20:44:29.005Z,66.80
2022-08-10T20:46:57.128Z,67.00
2022-08-10T20:49:37.607Z,67.10
2022-08-10T20:52:06.806Z,67.10
2022-08-10T20:54:38.643Z,67.20
2022-08-10T20:57:56.356Z,67.40
2022-08-10T21:00:10.928Z,67.40
2022-08-10T21:02:49.026Z,67.40
2022-08-10T21:05:20.024Z,67.40
2022-08-10T21:08:02.596Z,67.40
2022-08-10T21:10:49.663Z,67.40
2022-08-10T21:13:24.445Z,67.40
2022-08-10T21:15:58.380Z,67.50
2022-08-10T21:18:33.698Z,67.50
2022-08-10T21:21:16.467Z,67.70
2022-08-10T21:23:47.554Z,67.70
2022-08-10T21:26:40.069Z,67.70
2022-08-10T21:29:11.223Z,67.60
2022-08-10T21:32:06.677Z,67.60
2022-08-10T21:34:55.195Z,67.60
2022-08-10T21:37:39.760Z,67.60
2022-08-10T21:40:07.921Z,67.60
2022-08-10T21:43:32.145Z,67.50
2022-08-10T21:46:54.710Z,67.70
2022-08-10T21:49:50.991Z,67.70
2022-08-10T21:52:53.535Z,67.60
2022-08-10T21:55:55.938Z,67.50
2022-08-10T21:58:55.113Z,67.60
2022-08-10T22:02:01.453Z,67.60
2022-08-10T22:04:49.847Z,67.60
2022-08-10T22:07:39.459Z,67.70
2022-08-10T22:10:28.213Z,67.80
2022-08-10T22:13:19.633Z,67.80
2022-08-10T22:16:11.485Z,67.90
2022-08-10T22:19:02.710Z,68.00
2022-08-10T22:21:54.467Z,68.10
2022-08-10T22:25:00.088Z,68.10
2022-08-10T22:27:48.023Z,68.20
2022-08-10T22:30:35.828Z,68.20
2022-08-10T22:33:31.857Z,68.30
2022-08-10T22:36:17.957Z,68.20
2022-08-10T22:40:07.749Z,68.20
2022-08-10T22:42:58.128Z,68.20
2022-08-10T22:45:52.076Z,68.20
2022-08-10T22:48:38.116Z,68.10
2022-08-10T22:51:15.283Z,67.90
2022-08-10T22:54:07.054Z,67.80
2022-08-10T22:56:57.122Z,67.80
2022-08-10T22:59:31.768Z,67.70
2022-08-10T23:02:08.206Z,67.70
2022-08-10T23:04:51.014Z,67.70
2022-08-10T23:07:30.702Z,67.50
2022-08-10T23:10:03.112Z,67.50
2022-08-10T23:12:37.288Z,67.40
2022-08-10T23:15:26.026Z,67.30
2022-08-10T23:18:13.940Z,67.30
2022-08-10T23:20:42.814Z,67.30
2022-08-10T23:23:23.597Z,67.40
2022-08-10T23:25:56.673Z,67.50
2022-08-10T23:28:39.034Z,67.60
2022-08-10T23:31:15.221Z,67.70
2022-08-10T23:33:45.158Z,67.70
2022-08-10T23:36:33.881Z,67.60
2022-08-10T23:39:27.084Z,67.60
2022-08-10T23:41:54.089Z,67.80
2022-08-10T23:44:22.955Z,68.60
2022-08-10T23:46:51.599Z,68.20
2022-08-10T23:49:20.407Z,68.20
2022-08-10T23:51:55.862Z,68.10
2022-08-10T23:54:25.321Z,68.30
2022-08-10T23:56:56.628Z,68.20
2022-08-10T23:59:31.442Z,68.30
